createdAt,value
2022-09-30T00:01:50.875Z,1.70
2022-09-30T00:04:20.184Z,2.15
2022-09-30T00:06:48.907Z,1.65
2022-09-30T00:09:17.262Z,1.10
2022-09-30T00:11:46.745Z,1.33
2022-09-30T00:14:16.283Z,1.42
2022-09-30T00:16:45.037Z,1.65
2022-09-30T00:19:15.154Z,1.48
2022-09-30T00:21:43.484Z,1.52
2022-09-30T00:24:12.081Z,1.40
2022-09-30T00:26:40.673Z,0.95
2022-09-30T00:29:08.939Z,1.75
2022-09-30T00:31:37.448Z,1.08
2022-09-30T00:34:09.488Z,2.10
2022-09-30T00:36:40.871Z,1.55
2022-09-30T00:39:11.162Z,1.65
2022-09-30T00:41:39.677Z,1.27
2022-09-30T00:44:26.450Z,2.08
2022-09-30T00:46:56.697Z,1.70
2022-09-30T00:49:26.680Z,1.20
2022-09-30T00:51:58.176Z,1.48
2022-09-30T00:54:27.946Z,1.10
2022-09-30T00:56:57.614Z,1.50
2022-09-30T00:59:27.341Z,1.90
2022-09-30T01:01:55.877Z,1.42
2022-09-30T01:04:25.352Z,0.88
2022-09-30T01:06:53.668Z,1.25
2022-09-30T01:09:23.387Z,1.45
2022-09-30T01:11:51.816Z,1.15
2022-09-30T01:14:21.735Z,1.27
2022-09-30T01:16:56.788Z,1.13
2022-09-30T01:19:45.288Z,1.40
2022-09-30T01:22:32.026Z,1.63
2022-09-30T01:25:19.952Z,1.67
2022-09-30T01:27:53.231Z,1.15
2022-09-30T01:30:22.279Z,1.48
2022-09-30T01:33:08.529Z,1.63
2022-09-30T01:35:45.698Z,1.40
2022-09-30T01:38:15.937Z,2.13
2022-09-30T01:40:48.091Z,1.75
2022-09-30T01:43:20.432Z,1.73
2022-09-30T01:45:51.754Z,1.42
2022-09-30T01:48:23.378Z,0.73
2022-09-30T01:50:56.038Z,1.55
2022-09-30T01:53:29.493Z,1.40
2022-09-30T01:56:00.602Z,1.35
2022-09-30T01:58:32.145Z,1.38
2022-09-30T02:01:02.296Z,1.60
2022-09-30T02:03:32.614Z,1.02
2022-09-30T02:06:04.443Z,1.13
2022-09-30T02:08:34.662Z,1.63
2022-09-30T02:11:05.875Z,1.92
2022-09-30T02:13:37.749Z,1.35
2022-09-30T02:16:13.038Z,1.05
2022-09-30T02:18:43.480Z,1.55
2022-09-30T02:21:16.769Z,1.50
2022-09-30T02:23:47.606Z,1.70
2022-09-30T02:26:18.836Z,1.00
2022-09-30T02:28:51.402Z,1.77
2022-09-30T02:31:20.503Z,1.08
2022-09-30T02:33:51.015Z,1.52
2022-09-30T02:36:22.672Z,1.40
2022-09-30T02:38:56.524Z,1.17
2022-09-30T02:41:26.463Z,1.60
2022-09-30T02:43:55.590Z,1.48
2022-09-30T02:46:27.253Z,1.40
2022-09-30T02:49:00.335Z,1.17
2022-09-30T02:51:35.084Z,2.03
2022-09-30T02:54:07.722Z,1.83
2022-09-30T02:56:42.670Z,2.17
2022-09-30T03:01:41.969Z,3.08
2022-09-30T03:04:12.327Z,4.35
2022-09-30T03:06:41.988Z,3.30
2022-09-30T03:09:10.538Z,4.03
2022-09-30T03:11:38.999Z,5.22
2022-09-30T03:14:19.192Z,3.50
2022-09-30T03:17:06.162Z,3.10
2022-09-30T03:19:42.277Z,3.00
2022-09-30T03:22:27.295Z,3.10
2022-09-30T03:25:02.204Z,2.38
2022-09-30T03:27:33.620Z,2.33
2022-09-30T03:30:05.203Z,2.13
2022-09-30T03:32:37.775Z,1.42
2022-09-30T03:35:08.739Z,1.98
2022-09-30T03:37:45.470Z,1.50
2022-09-30T03:40:18.492Z,0.60
2022-09-30T03:42:48.908Z,0.80
2022-09-30T03:45:20.335Z,1.08
2022-09-30T03:47:50.250Z,1.17
2022-09-30T03:50:22.554Z,1.00
2022-09-30T03:52:52.506Z,0.93
2022-09-30T03:55:22.495Z,1.73
2022-09-30T03:57:51.268Z,0.85
2022-09-30T04:00:20.085Z,1.35
2022-09-30T04:02:48.362Z,0.80
2022-09-30T04:05:16.619Z,1.08
2022-09-30T04:07:44.855Z,0.73
2022-09-30T04:10:14.506Z,0.88
2022-09-30T04:12:42.750Z,0.75
2022-09-30T04:15:11.506Z,1.13
2022-09-30T04:17:39.780Z,0.68
2022-09-30T04:20:08.209Z,1.27
2022-09-30T04:22:36.459Z,1.13
2022-09-30T04:25:04.753Z,0.80
2022-09-30T04:27:34.373Z,1.08
2022-09-30T04:30:02.684Z,2.03
2022-09-30T04:32:31.043Z,0.77
2022-09-30T04:34:59.489Z,1.52
2022-09-30T04:37:27.992Z,1.45
2022-09-30T04:39:56.272Z,1.33
2022-09-30T04:42:25.125Z,1.73
2022-09-30T04:44:55.775Z,1.08
2022-09-30T04:47:25.216Z,1.52
2022-09-30T04:49:53.536Z,1.67
2022-09-30T04:52:21.754Z,0.98
2022-09-30T04:54:49.990Z,1.65
2022-09-30T04:57:18.279Z,1.35
2022-09-30T04:59:46.537Z,1.48
2022-09-30T05:02:16.985Z,1.35
2022-09-30T05:04:45.592Z,0.90
2022-09-30T05:07:13.907Z,1.70
2022-09-30T05:09:42.369Z,2.35
2022-09-30T05:12:10.692Z,1.52
2022-09-30T05:14:38.994Z,1.55
2022-09-30T05:17:07.373Z,0.93
2022-09-30T05:19:37.041Z,1.17
2022-09-30T05:22:05.321Z,1.48
2022-09-30T05:24:33.687Z,0.77
2022-09-30T05:27:01.977Z,1.38
2022-09-30T05:29:30.311Z,0.50
2022-09-30T05:31:58.630Z,1.38
2022-09-30T05:34:27.151Z,1.17
2022-09-30T05:36:56.925Z,2.40
2022-09-30T05:39:25.199Z,1.05
2022-09-30T05:41:53.498Z,1.02
2022-09-30T05:44:21.790Z,1.65
2022-09-30T05:46:50.092Z,0.30
2022-09-30T05:49:18.463Z,1.35
2022-09-30T05:51:46.808Z,1.23
2022-09-30T05:54:16.598Z,0.65
2022-09-30T05:56:44.876Z,0.98
2022-09-30T05:59:13.389Z,0.90
2022-09-30T06:01:41.772Z,1.65
2022-09-30T06:04:10.197Z,1.15
2022-09-30T06:06:38.921Z,0.77
2022-09-30T06:09:07.247Z,1.42
2022-09-30T06:11:36.935Z,1.10
2022-09-30T06:14:05.523Z,1.17
2022-09-30T06:16:33.832Z,0.93
2022-09-30T06:19:02.304Z,1.33
2022-09-30T06:21:30.600Z,1.50
2022-09-30T06:23:58.888Z,1.35
2022-09-30T06:26:27.828Z,1.48
2022-09-30T06:28:57.420Z,1.25
2022-09-30T06:31:25.851Z,1.70
2022-09-30T06:33:54.560Z,1.02
2022-09-30T06:36:22.868Z,1.13
2022-09-30T06:38:52.984Z,1.20
2022-09-30T06:41:21.289Z,1.88
2022-09-30T06:43:49.639Z,0.85
2022-09-30T06:46:25.334Z,1.27
2022-09-30T06:49:10.658Z,1.60
2022-09-30T06:51:42.129Z,1.65
2022-09-30T06:54:10.733Z,1.67
2022-09-30T06:56:39.005Z,1.38
2022-09-30T06:59:07.372Z,1.90
2022-09-30T07:01:37.356Z,1.65
2022-09-30T07:04:09.670Z,1.35
2022-09-30T07:06:39.081Z,1.40
2022-09-30T07:09:07.972Z,1.70
2022-09-30T07:11:37.958Z,1.13
2022-09-30T07:14:06.308Z,1.48
2022-09-30T07:16:35.592Z,1.45
2022-09-30T07:19:06.847Z,2.00
2022-09-30T07:21:35.445Z,1.52
2022-09-30T07:24:04.053Z,1.48
2022-09-30T07:26:32.741Z,1.95
2022-09-30T07:29:01.236Z,0.88
2022-09-30T07:31:35.009Z,1.42
2022-09-30T07:34:07.322Z,1.35
2022-09-30T07:36:37.844Z,1.55
2022-09-30T07:39:08.156Z,1.58
2022-09-30T07:41:37.851Z,1.52
2022-09-30T07:44:07.264Z,2.00
2022-09-30T07:46:39.355Z,1.80
2022-09-30T07:49:10.731Z,1.33
2022-09-30T07:51:40.865Z,1.27
2022-09-30T07:54:10.225Z,1.33
2022-09-30T07:59:28.853Z,1.60
2022-09-30T08:01:57.563Z,1.33
2022-09-30T08:04:28.365Z,1.38
2022-09-30T08:06:58.398Z,1.83
2022-09-30T08:09:28.337Z,2.13
2022-09-30T08:11:57.555Z,1.17
2022-09-30T08:14:27.445Z,1.75
2022-09-30T08:16:58.480Z,1.10
2022-09-30T08:19:29.092Z,1.40
2022-09-30T08:21:57.767Z,1.67
2022-09-30T08:24:27.694Z,1.17
2022-09-30T08:26:56.704Z,1.45
2022-09-30T08:29:49.973Z,0.85
2022-09-30T08:32:13.852Z,1.52
2022-09-30T08:34:43.624Z,1.02
2022-09-30T08:37:12.138Z,0.95
2022-09-30T08:39:40.775Z,0.90
2022-09-30T08:42:36.139Z,0.80
2022-09-30T08:45:10.545Z,0.68
2022-09-30T08:47:44.480Z,1.08
2022-09-30T08:50:17.902Z,0.50
2022-09-30T08:52:49.862Z,0.55
2022-09-30T08:55:22.576Z,0.40
2022-09-30T08:57:51.148Z,0.40
2022-09-30T09:00:20.447Z,0.50
2022-09-30T09:02:52.167Z,0.80
2022-09-30T09:05:26.927Z,0.60
2022-09-30T09:08:00.498Z,0.65
2022-09-30T09:10:30.903Z,0.47
2022-09-30T09:13:04.039Z,0.68
2022-09-30T09:15:40.334Z,1.13
2022-09-30T09:18:24.716Z,0.47
2022-09-30T09:20:57.955Z,0.57
2022-09-30T09:23:26.823Z,0.80
2022-09-30T09:25:55.958Z,0.50
2022-09-30T09:28:29.914Z,0.40
2022-09-30T09:31:00.566Z,0.40
2022-09-30T09:33:30.870Z,0.45
2022-09-30T09:36:13.857Z,0.40
2022-09-30T09:38:47.775Z,0.43
2022-09-30T09:41:21.417Z,0.50
2022-09-30T09:43:53.777Z,0.70
2022-09-30T09:46:24.882Z,0.70
2022-09-30T09:49:18.101Z,0.73
2022-09-30T09:51:49.610Z,0.25
2022-09-30T09:54:20.282Z,0.80
2022-09-30T09:56:53.053Z,0.50
2022-09-30T09:59:22.025Z,0.35
2022-09-30T10:01:51.737Z,0.30
2022-09-30T10:04:23.742Z,0.40
2022-09-30T10:06:54.989Z,0.20
2022-09-30T10:09:25.755Z,0.20
2022-09-30T10:11:54.438Z,0.22
2022-09-30T10:14:23.960Z,0.22
2022-09-30T10:16:52.393Z,0.43
2022-09-30T10:19:22.468Z,0.45
2022-09-30T10:21:52.878Z,0.47
2022-09-30T10:24:29.819Z,0.35
2022-09-30T10:26:58.198Z,0.82
2022-09-30T10:29:28.311Z,0.30
2022-09-30T10:31:59.750Z,0.55
2022-09-30T10:34:30.780Z,0.22
2022-09-30T10:37:01.003Z,0.40
2022-09-30T10:39:31.816Z,0.43
2022-09-30T10:42:03.939Z,0.47
2022-09-30T10:44:32.620Z,0.30
2022-09-30T10:47:02.484Z,1.30
2022-09-30T10:49:33.060Z,0.77
2022-09-30T10:52:02.139Z,0.25
2022-09-30T10:54:45.820Z,0.30
2022-09-30T10:57:16.559Z,0.28
2022-09-30T10:59:45.645Z,0.20
2022-09-30T11:04:59.178Z,0.20
2022-09-30T11:07:29.761Z,0.30
2022-09-30T11:10:02.538Z,0.20
2022-09-30T11:12:34.566Z,0.60
2022-09-30T11:15:08.269Z,0.40
2022-09-30T11:17:40.769Z,0.30
2022-09-30T11:20:13.855Z,0.40
2022-09-30T11:22:45.641Z,0.30
2022-09-30T11:25:16.903Z,0.28
2022-09-30T11:27:50.551Z,0.30
2022-09-30T11:30:21.837Z,0.50
2022-09-30T11:32:59.638Z,0.30
2022-09-30T11:35:34.039Z,0.88
2022-09-30T11:38:07.557Z,0.40
2022-09-30T11:40:39.528Z,0.45
2022-09-30T11:43:10.560Z,0.68
2022-09-30T11:45:46.457Z,0.40
2022-09-30T11:48:20.810Z,0.30
2022-09-30T11:50:54.538Z,0.22
2022-09-30T11:53:27.736Z,0.52
2022-09-30T11:56:08.134Z,0.20
2022-09-30T11:58:42.473Z,1.20
2022-09-30T12:01:21.807Z,0.40
2022-09-30T12:03:56.242Z,0.30
2022-09-30T12:06:28.152Z,0.50
2022-09-30T12:09:00.026Z,0.60
2022-09-30T12:11:34.481Z,0.30
2022-09-30T12:14:05.552Z,0.40
2022-09-30T12:16:35.945Z,0.20
2022-09-30T12:19:07.602Z,0.52
2022-09-30T12:21:37.558Z,0.40
2022-09-30T12:24:08.779Z,0.68
2022-09-30T12:26:39.430Z,0.73
2022-09-30T12:29:28.553Z,0.50
2022-09-30T12:32:09.974Z,0.40
2022-09-30T12:34:45.268Z,0.30
2022-09-30T12:37:22.861Z,1.05
2022-09-30T12:40:13.827Z,0.50
2022-09-30T12:42:50.010Z,0.55
2022-09-30T12:45:42.255Z,0.52
2022-09-30T12:48:17.152Z,0.38
2022-09-30T12:50:49.844Z,0.30
2022-09-30T12:53:20.336Z,0.20
2022-09-30T12:55:48.846Z,0.28
2022-09-30T12:58:22.245Z,0.40
2022-09-30T13:01:05.682Z,0.30
2022-09-30T13:03:46.882Z,0.25
2022-09-30T13:06:18.325Z,0.25
2022-09-30T13:08:51.151Z,0.40
2022-09-30T13:11:40.175Z,0.20
2022-09-30T13:14:21.197Z,0.40
2022-09-30T13:17:02.980Z,0.28
2022-09-30T13:19:36.508Z,0.32
2022-09-30T13:22:29.737Z,0.20
2022-09-30T13:25:13.817Z,0.40
2022-09-30T13:27:43.069Z,0.30
2022-09-30T13:30:34.330Z,0.32
2022-09-30T13:33:30.295Z,0.32
2022-09-30T13:38:36.930Z,0.20
2022-09-30T13:41:08.226Z,0.20
2022-09-30T13:43:40.139Z,0.30
2022-09-30T13:46:10.430Z,0.32
2022-09-30T13:48:40.535Z,0.32
2022-09-30T13:51:09.429Z,0.40
2022-09-30T13:53:41.033Z,0.32
2022-09-30T13:56:11.268Z,0.40
2022-09-30T13:58:47.506Z,0.30
2022-09-30T14:01:21.408Z,0.43
2022-09-30T14:04:06.711Z,0.30
2022-09-30T14:06:39.839Z,0.28
2022-09-30T14:09:18.125Z,0.20
2022-09-30T14:11:55.894Z,0.20
2022-09-30T14:14:36.983Z,0.52
2022-09-30T14:17:11.322Z,0.20
2022-09-30T14:19:54.599Z,0.30
2022-09-30T14:22:26.767Z,0.20
2022-09-30T14:24:56.598Z,0.20
2022-09-30T14:27:36.079Z,0.25
2022-09-30T14:30:08.553Z,0.38
2022-09-30T14:32:42.112Z,0.35
2022-09-30T14:35:11.576Z,0.22
2022-09-30T14:37:44.070Z,0.90
2022-09-30T14:40:18.191Z,0.20
2022-09-30T14:42:47.954Z,0.27
2022-09-30T14:45:20.079Z,0.38
2022-09-30T14:47:49.856Z,0.20
2022-09-30T14:50:19.633Z,0.17
2022-09-30T14:52:49.267Z,0.38
2022-09-30T14:55:26.961Z,0.38
2022-09-30T14:57:56.285Z,0.20
2022-09-30T15:00:29.147Z,0.30
2022-09-30T15:02:57.929Z,0.35
2022-09-30T15:05:26.891Z,0.30
2022-09-30T15:07:55.671Z,0.20
2022-09-30T15:10:26.008Z,0.20
2022-09-30T15:12:56.313Z,0.40
2022-09-30T15:15:26.538Z,0.20
2022-09-30T15:17:55.518Z,0.25
2022-09-30T15:20:28.003Z,0.57
2022-09-30T15:22:58.661Z,0.20
2022-09-30T15:25:29.470Z,0.30
2022-09-30T15:27:57.989Z,0.20
2022-09-30T15:30:29.100Z,0.15
2022-09-30T15:33:01.157Z,0.20
2022-09-30T15:35:29.826Z,0.38
2022-09-30T15:38:07.838Z,0.25
2022-09-30T15:40:50.791Z,0.30
2022-09-30T15:43:32.875Z,0.25
2022-09-30T15:46:17.158Z,0.20
2022-09-30T15:48:46.005Z,0.30
2022-09-30T15:51:42.499Z,0.35
2022-09-30T15:54:28.937Z,0.38
2022-09-30T15:57:00.185Z,0.20
2022-09-30T15:59:58.565Z,0.25
2022-09-30T16:02:27.044Z,0.28
2022-09-30T16:04:55.634Z,0.60
2022-09-30T16:07:26.366Z,0.20
2022-09-30T16:09:56.041Z,0.55
2022-09-30T16:12:28.195Z,0.22
2022-09-30T16:14:57.716Z,0.30
2022-09-30T16:17:27.198Z,0.25
2022-09-30T16:19:58.733Z,0.10
2022-09-30T16:22:35.399Z,0.25
2022-09-30T16:25:06.145Z,0.35
2022-09-30T16:27:36.511Z,0.30
2022-09-30T16:30:06.741Z,0.10
2022-09-30T16:32:38.010Z,0.45
2022-09-30T16:35:07.034Z,0.17
2022-09-30T16:37:36.221Z,0.20
2022-09-30T16:40:11.537Z,0.52
2022-09-30T16:42:41.207Z,0.40
2022-09-30T16:45:09.963Z,0.22
2022-09-30T16:47:38.266Z,0.40
2022-09-30T16:50:14.312Z,0.30
2022-09-30T16:52:42.958Z,1.17
2022-09-30T16:55:11.337Z,0.17
2022-09-30T16:57:41.085Z,0.52
2022-09-30T17:00:09.634Z,0.47
2022-09-30T17:02:38.175Z,0.30
2022-09-30T17:05:06.840Z,0.10
2022-09-30T17:07:35.582Z,0.50
2022-09-30T17:10:03.797Z,0.45
2022-09-30T17:12:32.044Z,0.50
2022-09-30T17:15:01.874Z,0.30
2022-09-30T17:17:30.225Z,0.00
2022-09-30T17:19:58.691Z,0.10
2022-09-30T17:22:27.002Z,0.20
2022-09-30T17:24:55.361Z,0.28
2022-09-30T17:27:23.657Z,0.35
2022-09-30T17:29:51.943Z,0.52
2022-09-30T17:32:21.666Z,0.30
2022-09-30T17:34:50.191Z,0.30
2022-09-30T17:37:18.962Z,0.20
2022-09-30T17:39:47.312Z,0.20
2022-09-30T17:42:33.569Z,0.60
2022-09-30T17:45:01.833Z,0.25
2022-09-30T17:47:32.319Z,0.52
2022-09-30T17:50:00.687Z,0.32
2022-09-30T17:52:33.169Z,0.30
2022-09-30T17:55:01.492Z,0.55
2022-09-30T17:57:29.935Z,0.35
2022-09-30T17:59:58.876Z,0.28
2022-09-30T18:02:27.479Z,0.50
2022-09-30T18:04:57.286Z,0.70
2022-09-30T18:07:27.655Z,0.25
2022-09-30T18:09:55.907Z,0.40
2022-09-30T18:12:24.226Z,0.20
2022-09-30T18:14:53.598Z,0.30
2022-09-30T18:17:21.984Z,0.13
2022-09-30T18:19:50.326Z,0.20
2022-09-30T18:22:19.978Z,0.60
2022-09-30T18:25:05.857Z,0.40
2022-09-30T18:27:34.690Z,0.30
2022-09-30T18:30:04.272Z,0.60
2022-09-30T18:32:32.924Z,0.30
2022-09-30T18:35:01.729Z,0.22
2022-09-30T18:37:33.235Z,0.55
2022-09-30T18:40:01.745Z,0.30
2022-09-30T18:42:30.257Z,0.20
2022-09-30T18:44:58.751Z,0.38
2022-09-30T18:47:27.739Z,0.70
2022-09-30T18:49:56.162Z,0.65
2022-09-30T18:52:24.484Z,0.52
2022-09-30T18:54:54.299Z,0.20
2022-09-30T18:57:22.946Z,0.20
2022-09-30T18:59:51.349Z,0.43
2022-09-30T19:02:20.020Z,0.20
2022-09-30T19:04:48.675Z,0.40
2022-09-30T19:07:20.397Z,0.40
2022-09-30T19:09:49.195Z,0.47
2022-09-30T19:12:18.908Z,0.55
2022-09-30T19:14:47.831Z,0.20
2022-09-30T19:17:16.778Z,0.50
2022-09-30T19:19:46.046Z,0.35
2022-09-30T19:22:14.839Z,0.75
2022-09-30T19:24:43.833Z,0.47
2022-09-30T19:27:12.183Z,0.50
2022-09-30T19:29:41.907Z,0.60
2022-09-30T19:32:12.761Z,0.40
2022-09-30T19:34:42.534Z,0.63
2022-09-30T19:37:21.778Z,0.35
2022-09-30T19:39:54.214Z,0.32
2022-09-30T19:42:22.656Z,0.17
2022-09-30T19:44:52.903Z,0.32
2022-09-30T19:47:21.223Z,0.28
2022-09-30T19:49:49.984Z,0.60
2022-09-30T19:52:22.109Z,0.30
2022-09-30T19:54:51.813Z,0.52
2022-09-30T19:57:20.209Z,0.60
2022-09-30T19:59:48.535Z,0.30
2022-09-30T20:02:18.869Z,0.55
2022-09-30T20:04:48.146Z,0.40
2022-09-30T20:07:16.502Z,0.70
2022-09-30T20:09:46.587Z,0.50
2022-09-30T20:12:15.093Z,0.70
2022-09-30T20:15:01.201Z,0.77
2022-09-30T20:17:31.150Z,0.63
2022-09-30T20:20:17.080Z,0.28
2022-09-30T20:22:45.363Z,0.40
2022-09-30T20:25:14.115Z,0.63
2022-09-30T20:27:42.954Z,0.95
2022-09-30T20:30:11.784Z,0.38
2022-09-30T20:32:41.395Z,0.43
2022-09-30T20:35:11.557Z,0.77
2022-09-30T20:37:40.922Z,0.70
2022-09-30T20:40:10.203Z,0.40
2022-09-30T20:42:40.066Z,0.50
2022-09-30T20:45:10.623Z,0.85
2022-09-30T20:47:39.735Z,0.43
2022-09-30T20:50:10.418Z,0.60
2022-09-30T20:52:38.804Z,0.95
2022-09-30T20:55:08.134Z,0.70
2022-09-30T20:57:36.455Z,0.60
2022-09-30T21:00:04.914Z,0.57
2022-09-30T21:02:33.331Z,1.17
2022-09-30T21:05:04.181Z,0.52
2022-09-30T21:07:34.110Z,0.77
2022-09-30T21:10:02.477Z,0.95
2022-09-30T21:12:32.060Z,0.85
2022-09-30T21:15:01.228Z,0.90
2022-09-30T21:17:30.369Z,0.75
2022-09-30T21:19:58.718Z,0.63
2022-09-30T21:22:27.218Z,0.93
2022-09-30T21:24:56.891Z,1.00
2022-09-30T21:27:25.341Z,0.88
2022-09-30T21:29:53.761Z,0.70
2022-09-30T21:32:22.022Z,0.95
2022-09-30T21:34:50.236Z,1.10
2022-09-30T21:37:18.500Z,1.00
2022-09-30T21:39:48.181Z,0.80
2022-09-30T21:42:17.866Z,0.93
2022-09-30T21:44:46.190Z,0.90
2022-09-30T21:47:15.098Z,0.70
2022-09-30T21:49:43.476Z,0.77
2022-09-30T21:52:11.881Z,0.75
2022-09-30T21:54:40.306Z,0.70
2022-09-30T21:57:09.254Z,0.63
2022-09-30T21:59:45.487Z,0.70
2022-09-30T22:02:15.658Z,0.95
2022-09-30T22:04:43.978Z,0.98
2022-09-30T22:07:14.076Z,0.95
2022-09-30T22:09:42.337Z,0.95
2022-09-30T22:12:10.659Z,0.47
2022-09-30T22:14:40.332Z,0.80
2022-09-30T22:17:10.211Z,0.80
2022-09-30T22:19:39.191Z,0.60
2022-09-30T22:22:07.572Z,0.98
2022-09-30T22:24:37.102Z,1.02
2022-09-30T22:27:07.459Z,0.70
2022-09-30T22:29:36.088Z,0.77
2022-09-30T22:32:05.907Z,1.10
2022-09-30T22:34:51.787Z,0.60
2022-09-30T22:37:37.847Z,0.68
2022-09-30T22:40:06.435Z,1.15
2022-09-30T22:42:35.734Z,0.98
2022-09-30T22:45:04.608Z,0.82
2022-09-30T22:47:34.190Z,0.93
2022-09-30T22:50:03.310Z,0.60
2022-09-30T22:52:31.977Z,0.68
2022-09-30T22:55:00.422Z,0.98
2022-09-30T22:57:28.691Z,0.80
2022-09-30T22:59:58.914Z,1.00
2022-09-30T23:02:27.206Z,0.70
2022-09-30T23:04:57.170Z,1.13
2022-09-30T23:07:25.826Z,0.90
2022-09-30T23:09:54.168Z,0.98
2022-09-30T23:12:22.518Z,1.02
2022-09-30T23:14:50.910Z,0.80
2022-09-30T23:17:19.176Z,0.65
2022-09-30T23:19:47.548Z,1.35
2022-09-30T23:22:18.638Z,1.00
2022-09-30T23:24:47.015Z,0.77
2022-09-30T23:27:15.252Z,0.80
2022-09-30T23:29:43.514Z,1.45
2022-09-30T23:32:11.829Z,1.13
2022-09-30T23:34:40.261Z,1.17
2022-09-30T23:37:08.569Z,1.33
2022-09-30T23:39:38.184Z,0.70
2022-09-30T23:42:06.603Z,1.60
2022-09-30T23:44:34.888Z,1.17
2022-09-30T23:47:21.497Z,0.75
2022-09-30T23:49:50.497Z,0.38
2022-09-30T23:52:18.813Z,1.50
2022-09-30T23:54:48.508Z,1.00
2022-09-30T23:57:16.749Z,0.70
2022-09-30T23:59:45.079Z,0.88
